sensor_id;sensor_type;location;lat;lon;timestamp;P1;durP1;ratioP1;P2;durP2;ratioP2
52564;SDS011;38460;53.106;7.004;2023-02-15T00:01:42;24.55;;;19.35;;
52564;SDS011;38460;53.106;7.004;2023-02-15T00:04:09;24.23;;;18.23;;
52564;SDS011;38460;53.106;7.004;2023-02-15T00:06:37;26.30;;;20.23;;
52564;SDS011;38460;53.106;7.004;2023-02-15T00:09:03;24.33;;;19.83;;
52564;SDS011;38460;53.106;7.004;2023-02-15T00:11:29;26.13;;;18.55;;
52564;SDS011;38460;53.106;7.004;2023-02-15T00:16:45;24.50;;;18.67;;
52564;SDS011;38460;53.106;7.004;2023-02-15T00:19:12;22.10;;;17.45;;
52564;SDS011;38460;53.106;7.004;2023-02-15T00:21:40;24.83;;;18.40;;
52564;SDS011;38460;53.106;7.004;2023-02-15T00:24:06;24.52;;;18.05;;
52564;SDS011;38460;53.106;7.004;2023-02-15T00:26:34;23.35;;;18.55;;
52564;SDS011;38460;53.106;7.004;2023-02-15T00:29:00;24.27;;;18.35;;
52564;SDS011;38460;53.106;7.004;2023-02-15T00:31:29;25.13;;;17.63;;
52564;SDS011;38460;53.106;7.004;2023-02-15T00:34:03;21.95;;;16.67;;
52564;SDS011;38460;53.106;7.004;2023-02-15T00:36:30;25.25;;;17.92;;
52564;SDS011;38460;53.106;7.004;2023-02-15T00:38:56;23.55;;;18.02;;
52564;SDS011;38460;53.106;7.004;2023-02-15T00:41:22;21.38;;;18.10;;
52564;SDS011;38460;53.106;7.004;2023-02-15T00:43:47;23.75;;;18.33;;
52564;SDS011;38460;53.106;7.004;2023-02-15T00:46:13;19.20;;;15.75;;
52564;SDS011;38460;53.106;7.004;2023-02-15T00:48:39;24.83;;;18.45;;
52564;SDS011;38460;53.106;7.004;2023-02-15T00:51:04;23.60;;;18.13;;
52564;SDS011;38460;53.106;7.004;2023-02-15T00:53:30;26.75;;;19.35;;
52564;SDS011;38460;53.106;7.004;2023-02-15T00:55:56;26.20;;;18.77;;
52564;SDS011;38460;53.106;7.004;2023-02-15T00:58:22;22.05;;;18.20;;
52564;SDS011;38460;53.106;7.004;2023-02-15T01:00:49;24.08;;;17.50;;
52564;SDS011;38460;53.106;7.004;2023-02-15T01:03:15;22.73;;;18.25;;
52564;SDS011;38460;53.106;7.004;2023-02-15T01:05:42;25.35;;;18.05;;
52564;SDS011;38460;53.106;7.004;2023-02-15T01:08:08;22.40;;;17.05;;
52564;SDS011;38460;53.106;7.004;2023-02-15T01:10:35;20.92;;;16.75;;
52564;SDS011;38460;53.106;7.004;2023-02-15T01:13:01;20.27;;;16.70;;
52564;SDS011;38460;53.106;7.004;2023-02-15T01:15:27;22.83;;;16.73;;
52564;SDS011;38460;53.106;7.004;2023-02-15T01:17:53;20.92;;;17.38;;
52564;SDS011;38460;53.106;7.004;2023-02-15T01:20:20;20.10;;;16.42;;
52564;SDS011;38460;53.106;7.004;2023-02-15T01:22:47;25.13;;;18.15;;
52564;SDS011;38460;53.106;7.004;2023-02-15T01:25:15;24.00;;;19.38;;
52564;SDS011;38460;53.106;7.004;2023-02-15T01:27:42;20.27;;;16.90;;
52564;SDS011;38460;53.106;7.004;2023-02-15T01:30:08;23.05;;;17.58;;
52564;SDS011;38460;53.106;7.004;2023-02-15T01:32:34;20.67;;;17.67;;
52564;SDS011;38460;53.106;7.004;2023-02-15T01:35:00;19.13;;;16.77;;
52564;SDS011;38460;53.106;7.004;2023-02-15T01:37:26;21.42;;;16.35;;
52564;SDS011;38460;53.106;7.004;2023-02-15T01:39:52;20.30;;;16.67;;
52564;SDS011;38460;53.106;7.004;2023-02-15T01:42:22;23.23;;;18.38;;
52564;SDS011;38460;53.106;7.004;2023-02-15T01:53:10;23.35;;;19.27;;
52564;SDS011;38460;53.106;7.004;2023-02-15T01:55:40;26.95;;;19.85;;
52564;SDS011;38460;53.106;7.004;2023-02-15T01:58:12;24.05;;;19.02;;
52564;SDS011;38460;53.106;7.004;2023-02-15T02:00:39;27.20;;;20.33;;
52564;SDS011;38460;53.106;7.004;2023-02-15T02:03:05;24.77;;;19.92;;
52564;SDS011;38460;53.106;7.004;2023-02-15T02:05:31;25.92;;;19.77;;
52564;SDS011;38460;53.106;7.004;2023-02-15T02:07:58;25.10;;;20.15;;
52564;SDS011;38460;53.106;7.004;2023-02-15T02:10:26;26.27;;;19.60;;
52564;SDS011;38460;53.106;7.004;2023-02-15T02:12:54;24.35;;;19.27;;
52564;SDS011;38460;53.106;7.004;2023-02-15T02:15:33;24.63;;;19.42;;
52564;SDS011;38460;53.106;7.004;2023-02-15T02:18:26;25.85;;;19.77;;
52564;SDS011;38460;53.106;7.004;2023-02-15T02:23:33;26.42;;;20.42;;
52564;SDS011;38460;53.106;7.004;2023-02-15T02:32:42;24.55;;;20.33;;
52564;SDS011;38460;53.106;7.004;2023-02-15T02:38:01;27.13;;;20.25;;
52564;SDS011;38460;53.106;7.004;2023-02-15T02:40:55;28.65;;;20.20;;
52564;SDS011;38460;53.106;7.004;2023-02-15T02:49:28;26.25;;;18.25;;
52564;SDS011;38460;53.106;7.004;2023-02-15T02:51:59;25.00;;;19.83;;
52564;SDS011;38460;53.106;7.004;2023-02-15T02:54:29;22.95;;;19.33;;
52564;SDS011;38460;53.106;7.004;2023-02-15T02:56:58;23.17;;;18.75;;
52564;SDS011;38460;53.106;7.004;2023-02-15T02:59:31;29.85;;;20.92;;
52564;SDS011;38460;53.106;7.004;2023-02-15T03:04:39;28.00;;;21.23;;
52564;SDS011;38460;53.106;7.004;2023-02-15T03:07:23;25.83;;;19.17;;
52564;SDS011;38460;53.106;7.004;2023-02-15T03:09:53;27.17;;;19.48;;
52564;SDS011;38460;53.106;7.004;2023-02-15T03:12:29;28.35;;;20.60;;
52564;SDS011;38460;53.106;7.004;2023-02-15T03:15:08;27.15;;;20.13;;
52564;SDS011;38460;53.106;7.004;2023-02-15T03:17:43;23.92;;;18.88;;
52564;SDS011;38460;53.106;7.004;2023-02-15T03:23:00;26.55;;;19.17;;
52564;SDS011;38460;53.106;7.004;2023-02-15T03:25:39;28.20;;;20.10;;
52564;SDS011;38460;53.106;7.004;2023-02-15T03:28:15;24.55;;;18.40;;
52564;SDS011;38460;53.106;7.004;2023-02-15T03:30:46;24.77;;;19.23;;
52564;SDS011;38460;53.106;7.004;2023-02-15T03:33:15;23.75;;;19.27;;
52564;SDS011;38460;53.106;7.004;2023-02-15T03:38:13;27.08;;;20.45;;
52564;SDS011;38460;53.106;7.004;2023-02-15T03:40:46;27.00;;;20.52;;
52564;SDS011;38460;53.106;7.004;2023-02-15T03:46:06;28.27;;;20.98;;
52564;SDS011;38460;53.106;7.004;2023-02-15T03:51:07;28.20;;;20.58;;
52564;SDS011;38460;53.106;7.004;2023-02-15T03:53:56;28.77;;;20.85;;
52564;SDS011;38460;53.106;7.004;2023-02-15T03:56:23;29.30;;;22.30;;
52564;SDS011;38460;53.106;7.004;2023-02-15T03:58:49;32.97;;;23.75;;
52564;SDS011;38460;53.106;7.004;2023-02-15T04:01:37;46.97;;;24.20;;
52564;SDS011;38460;53.106;7.004;2023-02-15T04:04:23;39.58;;;24.45;;
52564;SDS011;38460;53.106;7.004;2023-02-15T04:06:53;39.13;;;24.20;;
52564;SDS011;38460;53.106;7.004;2023-02-15T04:09:19;63.97;;;25.98;;
52564;SDS011;38460;53.106;7.004;2023-02-15T04:12:03;44.08;;;24.60;;
52564;SDS011;38460;53.106;7.004;2023-02-15T04:14:29;54.78;;;27.13;;
52564;SDS011;38460;53.106;7.004;2023-02-15T04:17:13;35.47;;;22.85;;
52564;SDS011;38460;53.106;7.004;2023-02-15T04:19:39;72.28;;;27.35;;
52564;SDS011;38460;53.106;7.004;2023-02-15T04:22:23;39.17;;;23.73;;
52564;SDS011;38460;53.106;7.004;2023-02-15T04:25:08;45.55;;;25.25;;
52564;SDS011;38460;53.106;7.004;2023-02-15T04:27:37;36.25;;;24.33;;
52564;SDS011;38460;53.106;7.004;2023-02-15T04:30:06;40.35;;;25.80;;
52564;SDS011;38460;53.106;7.004;2023-02-15T04:32:33;37.05;;;24.05;;
52564;SDS011;38460;53.106;7.004;2023-02-15T04:34:59;37.35;;;24.98;;
52564;SDS011;38460;53.106;7.004;2023-02-15T04:37:25;48.83;;;26.25;;
52564;SDS011;38460;53.106;7.004;2023-02-15T04:39:51;36.58;;;25.80;;
52564;SDS011;38460;53.106;7.004;2023-02-15T04:42:17;36.58;;;24.50;;
52564;SDS011;38460;53.106;7.004;2023-02-15T04:44:43;36.05;;;22.45;;
52564;SDS011;38460;53.106;7.004;2023-02-15T04:47:09;38.65;;;25.90;;
52564;SDS011;38460;53.106;7.004;2023-02-15T04:49:34;42.83;;;26.42;;
52564;SDS011;38460;53.106;7.004;2023-02-15T04:52:00;40.30;;;27.08;;
52564;SDS011;38460;53.106;7.004;2023-02-15T04:54:26;42.35;;;27.45;;
52564;SDS011;38460;53.106;7.004;2023-02-15T04:56:52;39.22;;;27.55;;
52564;SDS011;38460;53.106;7.004;2023-02-15T04:59:17;37.47;;;24.63;;
52564;SDS011;38460;53.106;7.004;2023-02-15T05:01:43;35.35;;;24.80;;
52564;SDS011;38460;53.106;7.004;2023-02-15T05:04:09;38.33;;;26.15;;
52564;SDS011;38460;53.106;7.004;2023-02-15T05:06:34;43.00;;;26.92;;
52564;SDS011;38460;53.106;7.004;2023-02-15T05:09:00;48.95;;;30.85;;
52564;SDS011;38460;53.106;7.004;2023-02-15T05:11:26;39.97;;;24.73;;
52564;SDS011;38460;53.106;7.004;2023-02-15T05:13:52;38.35;;;26.65;;
52564;SDS011;38460;53.106;7.004;2023-02-15T05:16:18;42.78;;;28.88;;
52564;SDS011;38460;53.106;7.004;2023-02-15T05:18:44;45.10;;;29.63;;
52564;SDS011;38460;53.106;7.004;2023-02-15T05:21:09;53.97;;;31.63;;
52564;SDS011;38460;53.106;7.004;2023-02-15T05:23:35;49.83;;;32.47;;
52564;SDS011;38460;53.106;7.004;2023-02-15T05:26:03;47.78;;;30.92;;
52564;SDS011;38460;53.106;7.004;2023-02-15T05:28:47;53.92;;;33.72;;
52564;SDS011;38460;53.106;7.004;2023-02-15T05:31:14;46.80;;;31.10;;
52564;SDS011;38460;53.106;7.004;2023-02-15T05:33:42;42.83;;;29.10;;
52564;SDS011;38460;53.106;7.004;2023-02-15T05:36:08;46.90;;;29.80;;
52564;SDS011;38460;53.106;7.004;2023-02-15T05:38:34;48.13;;;31.10;;
52564;SDS011;38460;53.106;7.004;2023-02-15T05:41:02;51.05;;;33.25;;
52564;SDS011;38460;53.106;7.004;2023-02-15T05:43:29;53.78;;;33.80;;
52564;SDS011;38460;53.106;7.004;2023-02-15T05:45:56;50.28;;;32.92;;
52564;SDS011;38460;53.106;7.004;2023-02-15T05:48:23;57.63;;;37.05;;
52564;SDS011;38460;53.106;7.004;2023-02-15T05:51:07;51.25;;;33.60;;
52564;SDS011;38460;53.106;7.004;2023-02-15T05:53:36;61.08;;;37.15;;
52564;SDS011;38460;53.106;7.004;2023-02-15T05:56:04;65.75;;;35.80;;
52564;SDS011;38460;53.106;7.004;2023-02-15T05:58:32;57.05;;;36.85;;
52564;SDS011;38460;53.106;7.004;2023-02-15T06:01:11;72.22;;;40.97;;
52564;SDS011;38460;53.106;7.004;2023-02-15T06:03:37;59.47;;;37.40;;
52564;SDS011;38460;53.106;7.004;2023-02-15T06:06:03;67.60;;;38.50;;
52564;SDS011;38460;53.106;7.004;2023-02-15T06:08:30;54.88;;;36.20;;
52564;SDS011;38460;53.106;7.004;2023-02-15T06:10:56;57.83;;;36.05;;
52564;SDS011;38460;53.106;7.004;2023-02-15T06:13:22;64.63;;;39.05;;
52564;SDS011;38460;53.106;7.004;2023-02-15T06:15:48;57.65;;;37.05;;
52564;SDS011;38460;53.106;7.004;2023-02-15T06:18:13;55.60;;;34.72;;
52564;SDS011;38460;53.106;7.004;2023-02-15T06:20:39;54.95;;;34.33;;
52564;SDS011;38460;53.106;7.004;2023-02-15T06:23:05;58.17;;;39.15;;
52564;SDS011;38460;53.106;7.004;2023-02-15T06:25:31;61.15;;;35.17;;
52564;SDS011;38460;53.106;7.004;2023-02-15T06:27:56;58.83;;;36.28;;
52564;SDS011;38460;53.106;7.004;2023-02-15T06:30:22;66.35;;;37.45;;
52564;SDS011;38460;53.106;7.004;2023-02-15T06:32:48;54.08;;;35.35;;
52564;SDS011;38460;53.106;7.004;2023-02-15T06:35:14;59.15;;;35.08;;
52564;SDS011;38460;53.106;7.004;2023-02-15T06:37:39;54.42;;;35.00;;
52564;SDS011;38460;53.106;7.004;2023-02-15T06:40:06;57.55;;;36.67;;
52564;SDS011;38460;53.106;7.004;2023-02-15T06:42:33;60.00;;;36.13;;
52564;SDS011;38460;53.106;7.004;2023-02-15T06:44:58;68.78;;;39.28;;
52564;SDS011;38460;53.106;7.004;2023-02-15T06:47:25;64.80;;;39.80;;
52564;SDS011;38460;53.106;7.004;2023-02-15T06:49:51;59.80;;;35.45;;
52564;SDS011;38460;53.106;7.004;2023-02-15T06:52:16;62.17;;;36.78;;
52564;SDS011;38460;53.106;7.004;2023-02-15T06:54:42;63.22;;;38.17;;
52564;SDS011;38460;53.106;7.004;2023-02-15T06:57:08;63.15;;;37.35;;
52564;SDS011;38460;53.106;7.004;2023-02-15T06:59:34;58.38;;;36.85;;
52564;SDS011;38460;53.106;7.004;2023-02-15T07:02:00;59.22;;;37.53;;
52564;SDS011;38460;53.106;7.004;2023-02-15T07:04:27;61.50;;;37.55;;
52564;SDS011;38460;53.106;7.004;2023-02-15T07:06:54;61.97;;;40.13;;
52564;SDS011;38460;53.106;7.004;2023-02-15T07:09:20;70.82;;;41.05;;
52564;SDS011;38460;53.106;7.004;2023-02-15T07:11:46;65.75;;;39.47;;
52564;SDS011;38460;53.106;7.004;2023-02-15T07:14:31;68.15;;;39.33;;
52564;SDS011;38460;53.106;7.004;2023-02-15T07:16:57;63.47;;;41.13;;
52564;SDS011;38460;53.106;7.004;2023-02-15T07:19:22;73.47;;;41.30;;
52564;SDS011;38460;53.106;7.004;2023-02-15T07:21:48;71.93;;;40.75;;
52564;SDS011;38460;53.106;7.004;2023-02-15T07:24:14;66.63;;;38.58;;
52564;SDS011;38460;53.106;7.004;2023-02-15T07:26:40;63.03;;;39.83;;
52564;SDS011;38460;53.106;7.004;2023-02-15T07:29:06;59.40;;;37.35;;
52564;SDS011;38460;53.106;7.004;2023-02-15T07:31:32;60.35;;;37.20;;
52564;SDS011;38460;53.106;7.004;2023-02-15T07:33:57;59.80;;;36.00;;
52564;SDS011;38460;53.106;7.004;2023-02-15T07:36:23;58.33;;;37.08;;
52564;SDS011;38460;53.106;7.004;2023-02-15T07:38:49;56.70;;;36.97;;
52564;SDS011;38460;53.106;7.004;2023-02-15T07:41:15;61.88;;;37.53;;
52564;SDS011;38460;53.106;7.004;2023-02-15T07:43:42;65.65;;;38.50;;
52564;SDS011;38460;53.106;7.004;2023-02-15T07:46:10;55.53;;;34.05;;
52564;SDS011;38460;53.106;7.004;2023-02-15T07:51:08;58.10;;;36.85;;
52564;SDS011;38460;53.106;7.004;2023-02-15T07:53:36;65.07;;;38.00;;
52564;SDS011;38460;53.106;7.004;2023-02-15T07:56:03;64.40;;;36.95;;
52564;SDS011;38460;53.106;7.004;2023-02-15T07:58:32;65.70;;;38.65;;
52564;SDS011;38460;53.106;7.004;2023-02-15T08:01:20;58.85;;;36.33;;
52564;SDS011;38460;53.106;7.004;2023-02-15T08:03:49;69.03;;;37.05;;
52564;SDS011;38460;53.106;7.004;2023-02-15T08:06:15;63.03;;;38.17;;
52564;SDS011;38460;53.106;7.004;2023-02-15T08:08:41;65.00;;;38.88;;
52564;SDS011;38460;53.106;7.004;2023-02-15T08:11:23;67.22;;;40.28;;
52564;SDS011;38460;53.106;7.004;2023-02-15T08:13:51;69.28;;;40.38;;
52564;SDS011;38460;53.106;7.004;2023-02-15T08:16:34;65.13;;;41.28;;
52564;SDS011;38460;53.106;7.004;2023-02-15T08:19:02;57.28;;;37.72;;
52564;SDS011;38460;53.106;7.004;2023-02-15T08:21:33;68.65;;;38.50;;
52564;SDS011;38460;53.106;7.004;2023-02-15T08:24:00;64.55;;;38.72;;
52564;SDS011;38460;53.106;7.004;2023-02-15T08:26:28;67.22;;;38.08;;
52564;SDS011;38460;53.106;7.004;2023-02-15T08:28:55;59.88;;;37.63;;
52564;SDS011;38460;53.106;7.004;2023-02-15T08:31:22;59.90;;;37.40;;
52564;SDS011;38460;53.106;7.004;2023-02-15T08:33:48;65.18;;;38.35;;
52564;SDS011;38460;53.106;7.004;2023-02-15T08:36:17;58.00;;;36.55;;
52564;SDS011;38460;53.106;7.004;2023-02-15T08:38:44;63.83;;;37.08;;
52564;SDS011;38460;53.106;7.004;2023-02-15T08:43:36;57.97;;;37.00;;
52564;SDS011;38460;53.106;7.004;2023-02-15T08:46:02;59.78;;;34.53;;
52564;SDS011;38460;53.106;7.004;2023-02-15T08:48:28;55.42;;;35.85;;
52564;SDS011;38460;53.106;7.004;2023-02-15T08:50:54;56.53;;;34.17;;
52564;SDS011;38460;53.106;7.004;2023-02-15T08:53:20;56.08;;;33.28;;
52564;SDS011;38460;53.106;7.004;2023-02-15T08:55:47;56.75;;;35.63;;
52564;SDS011;38460;53.106;7.004;2023-02-15T08:58:20;54.75;;;33.15;;
52564;SDS011;38460;53.106;7.004;2023-02-15T09:00:46;53.65;;;33.17;;
52564;SDS011;38460;53.106;7.004;2023-02-15T09:03:11;59.28;;;34.42;;
52564;SDS011;38460;53.106;7.004;2023-02-15T09:05:37;52.72;;;34.42;;
52564;SDS011;38460;53.106;7.004;2023-02-15T09:08:03;53.97;;;33.88;;
52564;SDS011;38460;53.106;7.004;2023-02-15T09:10:29;55.80;;;32.85;;
52564;SDS011;38460;53.106;7.004;2023-02-15T09:12:55;54.00;;;32.90;;
52564;SDS011;38460;53.106;7.004;2023-02-15T09:15:21;51.83;;;31.40;;
52564;SDS011;38460;53.106;7.004;2023-02-15T09:17:46;50.60;;;32.00;;
52564;SDS011;38460;53.106;7.004;2023-02-15T09:20:12;55.63;;;32.05;;
52564;SDS011;38460;53.106;7.004;2023-02-15T09:22:38;50.65;;;31.65;;
52564;SDS011;38460;53.106;7.004;2023-02-15T09:25:04;52.58;;;30.83;;
52564;SDS011;38460;53.106;7.004;2023-02-15T09:27:30;57.88;;;33.35;;
52564;SDS011;38460;53.106;7.004;2023-02-15T09:29:56;56.08;;;32.35;;
52564;SDS011;38460;53.106;7.004;2023-02-15T09:32:22;56.33;;;34.42;;
52564;SDS011;38460;53.106;7.004;2023-02-15T09:34:47;53.70;;;31.63;;
52564;SDS011;38460;53.106;7.004;2023-02-15T09:37:13;54.72;;;32.10;;
52564;SDS011;38460;53.106;7.004;2023-02-15T09:39:40;52.63;;;33.08;;
52564;SDS011;38460;53.106;7.004;2023-02-15T09:47:58;52.83;;;32.13;;
52564;SDS011;38460;53.106;7.004;2023-02-15T09:53:02;57.17;;;31.88;;
52564;SDS011;38460;53.106;7.004;2023-02-15T09:58:46;51.40;;;31.38;;
52564;SDS011;38460;53.106;7.004;2023-02-15T10:01:31;59.35;;;33.13;;
52564;SDS011;38460;53.106;7.004;2023-02-15T10:07:00;53.30;;;31.45;;
52564;SDS011;38460;53.106;7.004;2023-02-15T10:37:32;47.15;;;29.88;;
52564;SDS011;38460;53.106;7.004;2023-02-15T10:42:27;49.17;;;31.25;;
52564;SDS011;38460;53.106;7.004;2023-02-15T10:50:51;48.08;;;29.88;;
52564;SDS011;38460;53.106;7.004;2023-02-15T11:03:54;45.35;;;30.23;;
52564;SDS011;38460;53.106;7.004;2023-02-15T11:06:28;50.50;;;30.58;;
52564;SDS011;38460;53.106;7.004;2023-02-15T11:09:05;45.40;;;30.55;;
52564;SDS011;38460;53.106;7.004;2023-02-15T11:11:38;45.83;;;30.10;;
52564;SDS011;38460;53.106;7.004;2023-02-15T11:20:20;48.08;;;31.15;;
52564;SDS011;38460;53.106;7.004;2023-02-15T11:22:51;48.03;;;29.75;;
52564;SDS011;38460;53.106;7.004;2023-02-15T11:25:19;49.63;;;28.20;;
52564;SDS011;38460;53.106;7.004;2023-02-15T11:27:55;50.25;;;28.50;;
52564;SDS011;38460;53.106;7.004;2023-02-15T11:30:22;46.47;;;29.55;;
52564;SDS011;38460;53.106;7.004;2023-02-15T11:32:53;46.55;;;29.17;;
52564;SDS011;38460;53.106;7.004;2023-02-15T11:35:32;48.42;;;30.58;;
52564;SDS011;38460;53.106;7.004;2023-02-15T11:40:42;46.80;;;29.63;;
52564;SDS011;38460;53.106;7.004;2023-02-15T11:43:18;48.65;;;30.58;;
52564;SDS011;38460;53.106;7.004;2023-02-15T11:46:13;48.08;;;29.48;;
52564;SDS011;38460;53.106;7.004;2023-02-15T11:48:40;48.60;;;30.20;;
52564;SDS011;38460;53.106;7.004;2023-02-15T11:51:08;44.42;;;28.85;;
52564;SDS011;38460;53.106;7.004;2023-02-15T11:53:37;46.67;;;29.33;;
52564;SDS011;38460;53.106;7.004;2023-02-15T11:56:04;41.45;;;28.00;;
52564;SDS011;38460;53.106;7.004;2023-02-15T11:58:41;42.00;;;28.20;;
52564;SDS011;38460;53.106;7.004;2023-02-15T12:03:54;44.40;;;27.02;;
52564;SDS011;38460;53.106;7.004;2023-02-15T12:06:44;43.35;;;25.98;;
52564;SDS011;38460;53.106;7.004;2023-02-15T12:09:42;41.55;;;27.23;;
52564;SDS011;38460;53.106;7.004;2023-02-15T12:14:50;41.50;;;26.58;;
52564;SDS011;38460;53.106;7.004;2023-02-15T12:17:20;43.25;;;26.95;;
52564;SDS011;38460;53.106;7.004;2023-02-15T12:19:48;44.78;;;27.15;;
52564;SDS011;38460;53.106;7.004;2023-02-15T12:22:22;37.28;;;24.45;;
52564;SDS011;38460;53.106;7.004;2023-02-15T12:24:51;39.83;;;25.85;;
52564;SDS011;38460;53.106;7.004;2023-02-15T12:27:27;41.83;;;25.35;;
52564;SDS011;38460;53.106;7.004;2023-02-15T12:30:19;39.17;;;25.63;;
52564;SDS011;38460;53.106;7.004;2023-02-15T12:32:51;40.80;;;25.85;;
52564;SDS011;38460;53.106;7.004;2023-02-15T12:35:36;39.50;;;26.25;;
52564;SDS011;38460;53.106;7.004;2023-02-15T12:40:34;38.40;;;25.70;;
52564;SDS011;38460;53.106;7.004;2023-02-15T12:43:00;37.92;;;24.48;;
52564;SDS011;38460;53.106;7.004;2023-02-15T12:45:34;52.15;;;25.60;;
52564;SDS011;38460;53.106;7.004;2023-02-15T12:48:17;40.80;;;24.90;;
52564;SDS011;38460;53.106;7.004;2023-02-15T12:50:45;43.90;;;27.13;;
52564;SDS011;38460;53.106;7.004;2023-02-15T12:55:49;41.53;;;25.90;;
52564;SDS011;38460;53.106;7.004;2023-02-15T12:58:16;38.45;;;24.40;;
52564;SDS011;38460;53.106;7.004;2023-02-15T13:01:24;39.72;;;25.75;;
52564;SDS011;38460;53.106;7.004;2023-02-15T13:03:59;41.38;;;26.05;;
52564;SDS011;38460;53.106;7.004;2023-02-15T13:06:25;40.80;;;24.00;;
52564;SDS011;38460;53.106;7.004;2023-02-15T13:08:59;37.78;;;26.15;;
52564;SDS011;38460;53.106;7.004;2023-02-15T13:11:41;39.35;;;25.38;;
52564;SDS011;38460;53.106;7.004;2023-02-15T13:14:23;40.97;;;25.90;;
52564;SDS011;38460;53.106;7.004;2023-02-15T13:16:56;38.92;;;25.00;;
52564;SDS011;38460;53.106;7.004;2023-02-15T13:19:36;40.63;;;25.23;;
52564;SDS011;38460;53.106;7.004;2023-02-15T13:22:06;46.63;;;26.88;;
52564;SDS011;38460;53.106;7.004;2023-02-15T13:24:48;42.42;;;24.80;;
52564;SDS011;38460;53.106;7.004;2023-02-15T13:27:20;41.35;;;25.98;;
52564;SDS011;38460;53.106;7.004;2023-02-15T13:29:50;43.22;;;26.55;;
52564;SDS011;38460;53.106;7.004;2023-02-15T13:32:24;41.88;;;25.13;;
52564;SDS011;38460;53.106;7.004;2023-02-15T13:35:02;41.65;;;26.05;;
52564;SDS011;38460;53.106;7.004;2023-02-15T13:37:36;40.92;;;24.45;;
52564;SDS011;38460;53.106;7.004;2023-02-15T13:40:28;38.45;;;24.30;;
52564;SDS011;38460;53.106;7.004;2023-02-15T13:49:13;42.35;;;25.13;;
52564;SDS011;38460;53.106;7.004;2023-02-15T13:52:02;37.72;;;24.10;;
52564;SDS011;38460;53.106;7.004;2023-02-15T13:57:42;39.10;;;25.92;;
52564;SDS011;38460;53.106;7.004;2023-02-15T14:09:06;44.30;;;26.20;;
52564;SDS011;38460;53.106;7.004;2023-02-15T14:20:47;40.83;;;25.20;;
52564;SDS011;38460;53.106;7.004;2023-02-15T14:23:38;40.72;;;25.40;;
52564;SDS011;38460;53.106;7.004;2023-02-15T14:29:01;43.15;;;25.42;;
52564;SDS011;38460;53.106;7.004;2023-02-15T14:31:51;38.67;;;24.75;;
52564;SDS011;38460;53.106;7.004;2023-02-15T14:34:25;37.45;;;24.90;;
52564;SDS011;38460;53.106;7.004;2023-02-15T14:36:56;39.78;;;25.40;;
52564;SDS011;38460;53.106;7.004;2023-02-15T14:39:59;40.28;;;25.35;;
52564;SDS011;38460;53.106;7.004;2023-02-15T14:45:35;42.97;;;24.90;;
52564;SDS011;38460;53.106;7.004;2023-02-15T14:48:14;39.17;;;22.83;;
52564;SDS011;38460;53.106;7.004;2023-02-15T14:50:44;39.17;;;22.52;;
52564;SDS011;38460;53.106;7.004;2023-02-15T14:58:38;35.47;;;22.08;;
52564;SDS011;38460;53.106;7.004;2023-02-15T15:01:33;35.85;;;23.00;;
52564;SDS011;38460;53.106;7.004;2023-02-15T15:04:03;36.45;;;22.55;;
52564;SDS011;38460;53.106;7.004;2023-02-15T15:06:33;34.22;;;22.73;;
52564;SDS011;38460;53.106;7.004;2023-02-15T15:09:09;37.90;;;24.83;;
52564;SDS011;38460;53.106;7.004;2023-02-15T15:11:37;38.28;;;23.92;;
52564;SDS011;38460;53.106;7.004;2023-02-15T15:14:05;37.55;;;23.25;;
52564;SDS011;38460;53.106;7.004;2023-02-15T15:19:03;41.35;;;24.60;;
52564;SDS011;38460;53.106;7.004;2023-02-15T15:32:39;37.92;;;23.80;;
52564;SDS011;38460;53.106;7.004;2023-02-15T15:46:33;35.65;;;22.48;;
52564;SDS011;38460;53.106;7.004;2023-02-15T15:49:07;40.15;;;23.98;;
52564;SDS011;38460;53.106;7.004;2023-02-15T15:51:45;34.15;;;21.88;;
52564;SDS011;38460;53.106;7.004;2023-02-15T15:54:16;40.95;;;24.75;;
52564;SDS011;38460;53.106;7.004;2023-02-15T15:56:47;43.53;;;24.88;;
52564;SDS011;38460;53.106;7.004;2023-02-15T15:59:18;41.65;;;24.10;;
52564;SDS011;38460;53.106;7.004;2023-02-15T16:01:47;38.20;;;24.33;;
52564;SDS011;38460;53.106;7.004;2023-02-15T16:04:14;36.17;;;23.35;;
52564;SDS011;38460;53.106;7.004;2023-02-15T16:06:51;37.10;;;25.15;;
52564;SDS011;38460;53.106;7.004;2023-02-15T16:09:21;40.90;;;24.77;;
52564;SDS011;38460;53.106;7.004;2023-02-15T16:11:49;35.15;;;23.83;;
52564;SDS011;38460;53.106;7.004;2023-02-15T16:14:30;37.25;;;24.75;;
52564;SDS011;38460;53.106;7.004;2023-02-15T16:17:01;36.03;;;22.58;;
52564;SDS011;38460;53.106;7.004;2023-02-15T16:19:33;41.33;;;23.88;;
52564;SDS011;38460;53.106;7.004;2023-02-15T16:22:04;36.03;;;22.38;;
52564;SDS011;38460;53.106;7.004;2023-02-15T16:29:48;39.88;;;23.45;;
52564;SDS011;38460;53.106;7.004;2023-02-15T16:32:24;35.58;;;23.42;;
52564;SDS011;38460;53.106;7.004;2023-02-15T16:37:19;38.03;;;25.48;;
52564;SDS011;38460;53.106;7.004;2023-02-15T16:39:51;34.78;;;22.50;;
52564;SDS011;38460;53.106;7.004;2023-02-15T16:42:17;40.80;;;23.20;;
52564;SDS011;38460;53.106;7.004;2023-02-15T16:44:45;38.13;;;24.45;;
52564;SDS011;38460;53.106;7.004;2023-02-15T16:49:48;39.30;;;23.48;;
52564;SDS011;38460;53.106;7.004;2023-02-15T16:52:23;33.83;;;22.23;;
52564;SDS011;38460;53.106;7.004;2023-02-15T16:54:53;38.65;;;24.10;;
52564;SDS011;38460;53.106;7.004;2023-02-15T16:57:22;40.38;;;23.73;;
52564;SDS011;38460;53.106;7.004;2023-02-15T16:59:52;39.28;;;24.30;;
52564;SDS011;38460;53.106;7.004;2023-02-15T17:02:23;37.70;;;22.60;;
52564;SDS011;38460;53.106;7.004;2023-02-15T17:05:10;38.03;;;22.65;;
52564;SDS011;38460;53.106;7.004;2023-02-15T17:07:51;33.60;;;21.80;;
52564;SDS011;38460;53.106;7.004;2023-02-15T17:10:37;38.42;;;23.05;;
52564;SDS011;38460;53.106;7.004;2023-02-15T17:16:23;34.30;;;21.80;;
52564;SDS011;38460;53.106;7.004;2023-02-15T17:18:26;37.70;;;21.85;;
52564;SDS011;38460;53.106;7.004;2023-02-15T17:21:10;37.15;;;23.60;;
52564;SDS011;38460;53.106;7.004;2023-02-15T17:23:45;38.92;;;23.75;;
52564;SDS011;38460;53.106;7.004;2023-02-15T17:26:21;37.20;;;22.88;;
52564;SDS011;38460;53.106;7.004;2023-02-15T17:28:59;33.22;;;22.63;;
52564;SDS011;38460;53.106;7.004;2023-02-15T17:31:34;40.78;;;21.92;;
52564;SDS011;38460;53.106;7.004;2023-02-15T17:34:01;40.33;;;24.10;;
52564;SDS011;38460;53.106;7.004;2023-02-15T17:36:27;35.15;;;22.60;;
52564;SDS011;38460;53.106;7.004;2023-02-15T17:41:30;38.50;;;22.08;;
52564;SDS011;38460;53.106;7.004;2023-02-15T17:44:02;37.85;;;22.13;;
52564;SDS011;38460;53.106;7.004;2023-02-15T17:46:29;35.42;;;22.48;;
52564;SDS011;38460;53.106;7.004;2023-02-15T17:48:59;35.53;;;21.85;;
52564;SDS011;38460;53.106;7.004;2023-02-15T17:51:26;33.72;;;21.35;;
52564;SDS011;38460;53.106;7.004;2023-02-15T17:53:52;38.72;;;20.55;;
52564;SDS011;38460;53.106;7.004;2023-02-15T17:56:37;38.33;;;20.80;;
52564;SDS011;38460;53.106;7.004;2023-02-15T17:59:03;36.70;;;21.17;;
52564;SDS011;38460;53.106;7.004;2023-02-15T18:01:34;34.55;;;21.33;;
52564;SDS011;38460;53.106;7.004;2023-02-15T18:04:19;40.85;;;24.52;;
52564;SDS011;38460;53.106;7.004;2023-02-15T18:07:04;39.22;;;23.00;;
52564;SDS011;38460;53.106;7.004;2023-02-15T18:09:51;42.97;;;25.70;;